Terminal Aerodrome Forecast
Issued by NWS

Home | Current Version | Previous Version | Text Only | Print | Product List | Glossary On
Versions: 1 2 3 4 5 6 7 8 9 10 11 12 13 14
058
FTPA31 PHFO 232320
TAFSTU
TAF
NSTU 232320Z 2400/2424 02010KT 6SM SHRA VCTS SCT015CB BKN035 OVC050
     FM240600 36005KT P6SM VCSH SCT015 BKN040 BKN100=

USA.gov is the U.S. government's official web portal to all federal, state and local government web resources and services.